sensor_id;sensor_type;location;lat;lon;timestamp;P1;durP1;ratioP1;P2;durP2;ratioP2
69087;SDS011;56190;43.562;5.036;2023-01-13T00:00:40;10.48;;;6.35;;
69087;SDS011;56190;43.562;5.036;2023-01-13T00:03:05;12.27;;;6.57;;
69087;SDS011;56190;43.562;5.036;2023-01-13T00:05:30;11.27;;;6.32;;
69087;SDS011;56190;43.562;5.036;2023-01-13T00:07:56;12.48;;;6.53;;
69087;SDS011;56190;43.562;5.036;2023-01-13T00:10:21;14.50;;;6.70;;
69087;SDS011;56190;43.562;5.036;2023-01-13T00:12:46;12.77;;;6.88;;
69087;SDS011;56190;43.562;5.036;2023-01-13T00:15:11;11.75;;;6.45;;
69087;SDS011;56190;43.562;5.036;2023-01-13T00:17:37;12.10;;;6.88;;
69087;SDS011;56190;43.562;5.036;2023-01-13T00:20:03;10.52;;;6.93;;
69087;SDS011;56190;43.562;5.036;2023-01-13T00:22:28;8.88;;;6.43;;
69087;SDS011;56190;43.562;5.036;2023-01-13T00:24:53;11.88;;;5.97;;
69087;SDS011;56190;43.562;5.036;2023-01-13T00:27:18;10.82;;;7.25;;
69087;SDS011;56190;43.562;5.036;2023-01-13T00:29:44;11.57;;;6.32;;
69087;SDS011;56190;43.562;5.036;2023-01-13T00:32:09;12.23;;;6.90;;
69087;SDS011;56190;43.562;5.036;2023-01-13T00:34:34;10.85;;;6.07;;
69087;SDS011;56190;43.562;5.036;2023-01-13T00:36:59;14.98;;;6.88;;
69087;SDS011;56190;43.562;5.036;2023-01-13T00:39:25;11.48;;;6.47;;
69087;SDS011;56190;43.562;5.036;2023-01-13T00:41:50;10.85;;;6.60;;
69087;SDS011;56190;43.562;5.036;2023-01-13T00:44:33;11.70;;;6.90;;
69087;SDS011;56190;43.562;5.036;2023-01-13T00:46:59;24.98;;;14.95;;
69087;SDS011;56190;43.562;5.036;2023-01-13T00:49:24;22.05;;;14.63;;
69087;SDS011;56190;43.562;5.036;2023-01-13T00:51:50;23.52;;;14.93;;
69087;SDS011;56190;43.562;5.036;2023-01-13T00:54:15;20.35;;;13.70;;
69087;SDS011;56190;43.562;5.036;2023-01-13T00:56:40;16.98;;;11.25;;
69087;SDS011;56190;43.562;5.036;2023-01-13T00:59:06;14.82;;;10.13;;
69087;SDS011;56190;43.562;5.036;2023-01-13T01:01:31;15.43;;;9.23;;
69087;SDS011;56190;43.562;5.036;2023-01-13T01:03:57;12.18;;;8.02;;
69087;SDS011;56190;43.562;5.036;2023-01-13T01:06:24;10.82;;;7.15;;
69087;SDS011;56190;43.562;5.036;2023-01-13T01:08:49;10.88;;;5.85;;
69087;SDS011;56190;43.562;5.036;2023-01-13T01:11:19;10.27;;;6.07;;
69087;SDS011;56190;43.562;5.036;2023-01-13T01:13:45;13.38;;;6.32;;
69087;SDS011;56190;43.562;5.036;2023-01-13T01:16:11;12.52;;;5.60;;
69087;SDS011;56190;43.562;5.036;2023-01-13T01:18:38;10.13;;;5.20;;
69087;SDS011;56190;43.562;5.036;2023-01-13T01:21:04;9.50;;;5.47;;
69087;SDS011;56190;43.562;5.036;2023-01-13T01:23:30;15.35;;;5.47;;
69087;SDS011;56190;43.562;5.036;2023-01-13T01:26:02;11.15;;;5.50;;
69087;SDS011;56190;43.562;5.036;2023-01-13T01:28:28;10.20;;;5.90;;
69087;SDS011;56190;43.562;5.036;2023-01-13T01:30:53;13.55;;;5.85;;
69087;SDS011;56190;43.562;5.036;2023-01-13T01:33:19;9.90;;;5.85;;
69087;SDS011;56190;43.562;5.036;2023-01-13T01:35:44;9.20;;;5.72;;
69087;SDS011;56190;43.562;5.036;2023-01-13T01:38:10;11.50;;;6.50;;
69087;SDS011;56190;43.562;5.036;2023-01-13T01:40:35;10.13;;;6.43;;
69087;SDS011;56190;43.562;5.036;2023-01-13T01:43:00;10.75;;;6.32;;
69087;SDS011;56190;43.562;5.036;2023-01-13T01:45:44;10.00;;;6.47;;
69087;SDS011;56190;43.562;5.036;2023-01-13T01:48:09;12.95;;;6.93;;
69087;SDS011;56190;43.562;5.036;2023-01-13T01:50:35;12.98;;;7.68;;
69087;SDS011;56190;43.562;5.036;2023-01-13T01:53:11;13.60;;;8.45;;
69087;SDS011;56190;43.562;5.036;2023-01-13T01:55:38;17.60;;;9.20;;
69087;SDS011;56190;43.562;5.036;2023-01-13T01:58:37;19.70;;;10.43;;
69087;SDS011;56190;43.562;5.036;2023-01-13T02:00:54;16.40;;;9.70;;
69087;SDS011;56190;43.562;5.036;2023-01-13T02:03:19;16.88;;;8.77;;
69087;SDS011;56190;43.562;5.036;2023-01-13T02:05:45;11.43;;;6.60;;
69087;SDS011;56190;43.562;5.036;2023-01-13T02:08:10;14.02;;;7.53;;
69087;SDS011;56190;43.562;5.036;2023-01-13T02:10:36;11.95;;;6.43;;
69087;SDS011;56190;43.562;5.036;2023-01-13T02:13:03;12.02;;;7.47;;
69087;SDS011;56190;43.562;5.036;2023-01-13T02:20:34;10.30;;;6.30;;
69087;SDS011;56190;43.562;5.036;2023-01-13T02:31:02;11.32;;;5.82;;
69087;SDS011;56190;43.562;5.036;2023-01-13T02:36:17;15.75;;;8.38;;
69087;SDS011;56190;43.562;5.036;2023-01-13T02:39:31;14.98;;;8.68;;
69087;SDS011;56190;43.562;5.036;2023-01-13T02:44:13;21.33;;;12.52;;
69087;SDS011;56190;43.562;5.036;2023-01-13T02:49:09;31.08;;;18.95;;
69087;SDS011;56190;43.562;5.036;2023-01-13T02:51:35;32.83;;;19.30;;
69087;SDS011;56190;43.562;5.036;2023-01-13T02:54:04;29.92;;;20.17;;
69087;SDS011;56190;43.562;5.036;2023-01-13T02:56:31;35.58;;;21.45;;
69087;SDS011;56190;43.562;5.036;2023-01-13T02:58:58;30.23;;;19.77;;
69087;SDS011;56190;43.562;5.036;2023-01-13T03:01:24;31.85;;;18.77;;
69087;SDS011;56190;43.562;5.036;2023-01-13T03:03:50;32.63;;;19.23;;
69087;SDS011;56190;43.562;5.036;2023-01-13T03:08:52;27.88;;;17.42;;
69087;SDS011;56190;43.562;5.036;2023-01-13T03:11:19;28.05;;;16.35;;
69087;SDS011;56190;43.562;5.036;2023-01-13T03:14:47;28.00;;;16.58;;
69087;SDS011;56190;43.562;5.036;2023-01-13T03:21:32;28.10;;;15.38;;
69087;SDS011;56190;43.562;5.036;2023-01-13T03:29:01;22.17;;;11.93;;
69087;SDS011;56190;43.562;5.036;2023-01-13T03:31:30;23.08;;;12.27;;
69087;SDS011;56190;43.562;5.036;2023-01-13T03:34:12;18.75;;;11.35;;
69087;SDS011;56190;43.562;5.036;2023-01-13T03:36:39;18.10;;;10.88;;
69087;SDS011;56190;43.562;5.036;2023-01-13T03:39:11;15.90;;;9.43;;
69087;SDS011;56190;43.562;5.036;2023-01-13T03:44:07;14.02;;;9.40;;
69087;SDS011;56190;43.562;5.036;2023-01-13T03:49:30;13.27;;;8.70;;
69087;SDS011;56190;43.562;5.036;2023-01-13T03:51:57;14.93;;;8.98;;
69087;SDS011;56190;43.562;5.036;2023-01-13T03:54:23;14.57;;;8.77;;
69087;SDS011;56190;43.562;5.036;2023-01-13T03:56:57;15.55;;;8.88;;
69087;SDS011;56190;43.562;5.036;2023-01-13T03:59:23;15.48;;;8.80;;
69087;SDS011;56190;43.562;5.036;2023-01-13T04:04:37;12.40;;;8.20;;
69087;SDS011;56190;43.562;5.036;2023-01-13T04:07:27;14.80;;;7.72;;
69087;SDS011;56190;43.562;5.036;2023-01-13T04:12:25;17.58;;;8.10;;
69087;SDS011;56190;43.562;5.036;2023-01-13T04:14:52;12.38;;;7.55;;
69087;SDS011;56190;43.562;5.036;2023-01-13T04:17:17;12.25;;;7.30;;
69087;SDS011;56190;43.562;5.036;2023-01-13T04:19:43;13.18;;;7.40;;
69087;SDS011;56190;43.562;5.036;2023-01-13T04:22:08;12.50;;;7.43;;
69087;SDS011;56190;43.562;5.036;2023-01-13T04:24:34;12.00;;;7.30;;
69087;SDS011;56190;43.562;5.036;2023-01-13T04:26:59;13.38;;;7.00;;
69087;SDS011;56190;43.562;5.036;2023-01-13T04:29:24;13.93;;;7.68;;
69087;SDS011;56190;43.562;5.036;2023-01-13T04:31:49;15.15;;;7.55;;
69087;SDS011;56190;43.562;5.036;2023-01-13T04:34:14;11.35;;;6.70;;
69087;SDS011;56190;43.562;5.036;2023-01-13T04:36:40;11.77;;;6.47;;
69087;SDS011;56190;43.562;5.036;2023-01-13T04:39:05;13.70;;;6.93;;
69087;SDS011;56190;43.562;5.036;2023-01-13T04:41:30;11.07;;;6.93;;
69087;SDS011;56190;43.562;5.036;2023-01-13T04:44:15;15.05;;;7.70;;
69087;SDS011;56190;43.562;5.036;2023-01-13T04:46:41;14.77;;;6.88;;
69087;SDS011;56190;43.562;5.036;2023-01-13T04:49:06;11.38;;;7.05;;
69087;SDS011;56190;43.562;5.036;2023-01-13T04:51:32;13.80;;;7.70;;
69087;SDS011;56190;43.562;5.036;2023-01-13T04:53:57;13.27;;;7.20;;
69087;SDS011;56190;43.562;5.036;2023-01-13T04:56:22;15.57;;;7.63;;
69087;SDS011;56190;43.562;5.036;2023-01-13T04:58:48;14.70;;;7.60;;
69087;SDS011;56190;43.562;5.036;2023-01-13T05:01:13;11.30;;;6.35;;
69087;SDS011;56190;43.562;5.036;2023-01-13T05:03:38;13.65;;;7.18;;
69087;SDS011;56190;43.562;5.036;2023-01-13T05:06:04;13.73;;;7.20;;
69087;SDS011;56190;43.562;5.036;2023-01-13T05:08:29;12.25;;;7.07;;
69087;SDS011;56190;43.562;5.036;2023-01-13T05:10:58;10.88;;;7.03;;
69087;SDS011;56190;43.562;5.036;2023-01-13T05:13:23;12.23;;;7.78;;
69087;SDS011;56190;43.562;5.036;2023-01-13T05:16:08;14.55;;;8.40;;
69087;SDS011;56190;43.562;5.036;2023-01-13T05:18:52;13.60;;;8.07;;
69087;SDS011;56190;43.562;5.036;2023-01-13T05:21:17;12.98;;;9.10;;
69087;SDS011;56190;43.562;5.036;2023-01-13T05:24:01;14.07;;;8.93;;
69087;SDS011;56190;43.562;5.036;2023-01-13T05:26:44;17.58;;;9.93;;
69087;SDS011;56190;43.562;5.036;2023-01-13T05:29:10;13.18;;;9.45;;
69087;SDS011;56190;43.562;5.036;2023-01-13T05:31:35;14.63;;;10.07;;
69087;SDS011;56190;43.562;5.036;2023-01-13T05:34:00;12.88;;;9.10;;
69087;SDS011;56190;43.562;5.036;2023-01-13T05:36:25;12.27;;;8.95;;
69087;SDS011;56190;43.562;5.036;2023-01-13T05:38:51;19.50;;;10.70;;
69087;SDS011;56190;43.562;5.036;2023-01-13T05:41:16;16.67;;;10.63;;
69087;SDS011;56190;43.562;5.036;2023-01-13T05:43:59;15.68;;;10.80;;
69087;SDS011;56190;43.562;5.036;2023-01-13T05:46:25;19.83;;;10.73;;
69087;SDS011;56190;43.562;5.036;2023-01-13T05:48:50;16.13;;;11.75;;
69087;SDS011;56190;43.562;5.036;2023-01-13T05:51:15;18.55;;;12.15;;
69087;SDS011;56190;43.562;5.036;2023-01-13T05:53:41;19.42;;;11.60;;
69087;SDS011;56190;43.562;5.036;2023-01-13T05:56:06;19.25;;;12.30;;
69087;SDS011;56190;43.562;5.036;2023-01-13T05:58:32;16.52;;;11.30;;
69087;SDS011;56190;43.562;5.036;2023-01-13T06:00:58;17.13;;;11.18;;
69087;SDS011;56190;43.562;5.036;2023-01-13T06:03:24;16.77;;;11.60;;
69087;SDS011;56190;43.562;5.036;2023-01-13T06:05:50;15.63;;;11.90;;
69087;SDS011;56190;43.562;5.036;2023-01-13T06:08:17;18.55;;;12.05;;
69087;SDS011;56190;43.562;5.036;2023-01-13T06:10:43;21.83;;;11.75;;
69087;SDS011;56190;43.562;5.036;2023-01-13T06:13:08;18.27;;;11.38;;
69087;SDS011;56190;43.562;5.036;2023-01-13T06:15:33;19.25;;;11.23;;
69087;SDS011;56190;43.562;5.036;2023-01-13T06:18:00;17.80;;;10.93;;
69087;SDS011;56190;43.562;5.036;2023-01-13T06:20:26;18.00;;;11.55;;
69087;SDS011;56190;43.562;5.036;2023-01-13T06:22:51;18.27;;;11.15;;
69087;SDS011;56190;43.562;5.036;2023-01-13T06:25:27;18.25;;;11.35;;
69087;SDS011;56190;43.562;5.036;2023-01-13T06:27:53;19.08;;;12.10;;
69087;SDS011;56190;43.562;5.036;2023-01-13T06:30:19;19.83;;;12.07;;
69087;SDS011;56190;43.562;5.036;2023-01-13T06:32:45;20.40;;;11.68;;
69087;SDS011;56190;43.562;5.036;2023-01-13T06:35:13;19.45;;;11.27;;
69087;SDS011;56190;43.562;5.036;2023-01-13T06:37:40;17.60;;;11.10;;
69087;SDS011;56190;43.562;5.036;2023-01-13T06:40:08;17.35;;;11.10;;
69087;SDS011;56190;43.562;5.036;2023-01-13T06:42:34;15.90;;;10.50;;
69087;SDS011;56190;43.562;5.036;2023-01-13T06:45:19;17.15;;;11.43;;
69087;SDS011;56190;43.562;5.036;2023-01-13T06:47:44;21.05;;;11.88;;
69087;SDS011;56190;43.562;5.036;2023-01-13T06:50:09;16.15;;;11.63;;
69087;SDS011;56190;43.562;5.036;2023-01-13T06:52:35;16.90;;;11.35;;
69087;SDS011;56190;43.562;5.036;2023-01-13T06:55:00;19.83;;;12.35;;
69087;SDS011;56190;43.562;5.036;2023-01-13T06:57:25;18.75;;;11.45;;
69087;SDS011;56190;43.562;5.036;2023-01-13T06:59:51;20.85;;;12.70;;
69087;SDS011;56190;43.562;5.036;2023-01-13T07:02:16;20.90;;;12.70;;
69087;SDS011;56190;43.562;5.036;2023-01-13T07:04:41;19.17;;;12.68;;
69087;SDS011;56190;43.562;5.036;2023-01-13T07:07:08;21.95;;;12.30;;
69087;SDS011;56190;43.562;5.036;2023-01-13T07:09:33;17.20;;;11.98;;
69087;SDS011;56190;43.562;5.036;2023-01-13T07:11:58;15.32;;;11.25;;
69087;SDS011;56190;43.562;5.036;2023-01-13T07:14:24;16.05;;;10.35;;
69087;SDS011;56190;43.562;5.036;2023-01-13T07:17:08;20.27;;;10.18;;
69087;SDS011;56190;43.562;5.036;2023-01-13T07:19:33;14.73;;;9.30;;
69087;SDS011;56190;43.562;5.036;2023-01-13T07:21:58;15.85;;;9.23;;
69087;SDS011;56190;43.562;5.036;2023-01-13T07:24:23;17.58;;;9.50;;
69087;SDS011;56190;43.562;5.036;2023-01-13T07:26:49;12.80;;;8.55;;
69087;SDS011;56190;43.562;5.036;2023-01-13T07:29:15;12.00;;;8.20;;
69087;SDS011;56190;43.562;5.036;2023-01-13T07:31:40;16.67;;;9.10;;
69087;SDS011;56190;43.562;5.036;2023-01-13T07:34:05;14.20;;;8.70;;
69087;SDS011;56190;43.562;5.036;2023-01-13T07:36:31;12.45;;;7.82;;
69087;SDS011;56190;43.562;5.036;2023-01-13T07:38:56;14.20;;;8.15;;
69087;SDS011;56190;43.562;5.036;2023-01-13T07:41:22;12.52;;;7.90;;
69087;SDS011;56190;43.562;5.036;2023-01-13T07:44:06;13.88;;;8.30;;
69087;SDS011;56190;43.562;5.036;2023-01-13T07:46:32;15.77;;;8.15;;
69087;SDS011;56190;43.562;5.036;2023-01-13T07:48:57;12.57;;;8.10;;
69087;SDS011;56190;43.562;5.036;2023-01-13T07:51:22;12.75;;;7.30;;
69087;SDS011;56190;43.562;5.036;2023-01-13T07:53:47;14.52;;;9.00;;
69087;SDS011;56190;43.562;5.036;2023-01-13T07:56:14;15.60;;;10.50;;
69087;SDS011;56190;43.562;5.036;2023-01-13T07:58:39;18.70;;;11.95;;
69087;SDS011;56190;43.562;5.036;2023-01-13T08:01:11;18.35;;;11.38;;
69087;SDS011;56190;43.562;5.036;2023-01-13T08:03:37;16.70;;;10.77;;
69087;SDS011;56190;43.562;5.036;2023-01-13T08:06:02;16.85;;;10.93;;
69087;SDS011;56190;43.562;5.036;2023-01-13T08:08:28;17.33;;;9.93;;
69087;SDS011;56190;43.562;5.036;2023-01-13T08:10:57;19.15;;;11.13;;
69087;SDS011;56190;43.562;5.036;2023-01-13T08:13:22;15.77;;;9.82;;
69087;SDS011;56190;43.562;5.036;2023-01-13T08:15:48;15.18;;;10.13;;
69087;SDS011;56190;43.562;5.036;2023-01-13T08:18:14;15.57;;;10.15;;
69087;SDS011;56190;43.562;5.036;2023-01-13T08:20:39;16.02;;;10.32;;
69087;SDS011;56190;43.562;5.036;2023-01-13T08:23:05;19.65;;;10.40;;
69087;SDS011;56190;43.562;5.036;2023-01-13T08:25:30;18.25;;;10.10;;
69087;SDS011;56190;43.562;5.036;2023-01-13T08:27:56;14.68;;;9.98;;
69087;SDS011;56190;43.562;5.036;2023-01-13T08:30:24;17.85;;;11.05;;
69087;SDS011;56190;43.562;5.036;2023-01-13T08:32:49;16.70;;;10.25;;
69087;SDS011;56190;43.562;5.036;2023-01-13T08:35:15;16.10;;;10.05;;
69087;SDS011;56190;43.562;5.036;2023-01-13T08:37:41;17.05;;;10.48;;
69087;SDS011;56190;43.562;5.036;2023-01-13T08:40:07;15.18;;;10.13;;
69087;SDS011;56190;43.562;5.036;2023-01-13T08:42:33;15.20;;;10.13;;
69087;SDS011;56190;43.562;5.036;2023-01-13T08:44:59;14.27;;;9.95;;
69087;SDS011;56190;43.562;5.036;2023-01-13T08:47:25;15.00;;;10.35;;
69087;SDS011;56190;43.562;5.036;2023-01-13T08:49:50;13.75;;;9.98;;
69087;SDS011;56190;43.562;5.036;2023-01-13T08:52:16;18.08;;;10.50;;
69087;SDS011;56190;43.562;5.036;2023-01-13T08:54:41;15.65;;;10.25;;
69087;SDS011;56190;43.562;5.036;2023-01-13T08:57:06;16.95;;;9.57;;
69087;SDS011;56190;43.562;5.036;2023-01-13T08:59:32;17.58;;;10.45;;
69087;SDS011;56190;43.562;5.036;2023-01-13T09:01:57;16.65;;;10.57;;
69087;SDS011;56190;43.562;5.036;2023-01-13T09:04:23;17.30;;;11.00;;
69087;SDS011;56190;43.562;5.036;2023-01-13T09:06:49;16.83;;;12.15;;
69087;SDS011;56190;43.562;5.036;2023-01-13T09:09:14;15.77;;;11.57;;
69087;SDS011;56190;43.562;5.036;2023-01-13T09:11:43;16.80;;;10.75;;
69087;SDS011;56190;43.562;5.036;2023-01-13T09:14:29;16.52;;;11.02;;
69087;SDS011;56190;43.562;5.036;2023-01-13T09:16:55;14.20;;;10.13;;
69087;SDS011;56190;43.562;5.036;2023-01-13T09:19:20;18.20;;;10.35;;
69087;SDS011;56190;43.562;5.036;2023-01-13T09:21:45;12.18;;;9.90;;
69087;SDS011;56190;43.562;5.036;2023-01-13T09:24:11;17.52;;;9.38;;
69087;SDS011;56190;43.562;5.036;2023-01-13T09:26:36;14.68;;;10.02;;
69087;SDS011;56190;43.562;5.036;2023-01-13T09:29:01;14.25;;;10.15;;
69087;SDS011;56190;43.562;5.036;2023-01-13T09:31:27;19.10;;;10.43;;
69087;SDS011;56190;43.562;5.036;2023-01-13T09:33:52;18.25;;;10.35;;
69087;SDS011;56190;43.562;5.036;2023-01-13T09:36:36;13.40;;;10.18;;
69087;SDS011;56190;43.562;5.036;2023-01-13T09:39:01;16.15;;;9.20;;
69087;SDS011;56190;43.562;5.036;2023-01-13T09:41:27;16.40;;;9.85;;
69087;SDS011;56190;43.562;5.036;2023-01-13T09:44:16;17.23;;;9.93;;
69087;SDS011;56190;43.562;5.036;2023-01-13T09:46:48;14.68;;;9.45;;
69087;SDS011;56190;43.562;5.036;2023-01-13T09:49:16;14.55;;;10.57;;
69087;SDS011;56190;43.562;5.036;2023-01-13T09:51:46;17.77;;;10.63;;
69087;SDS011;56190;43.562;5.036;2023-01-13T09:54:15;15.60;;;10.68;;
69087;SDS011;56190;43.562;5.036;2023-01-13T09:56:43;18.58;;;11.50;;
69087;SDS011;56190;43.562;5.036;2023-01-13T09:59:09;20.17;;;11.40;;
69087;SDS011;56190;43.562;5.036;2023-01-13T10:01:41;19.65;;;11.45;;
69087;SDS011;56190;43.562;5.036;2023-01-13T10:04:09;20.65;;;11.65;;
69087;SDS011;56190;43.562;5.036;2023-01-13T10:06:36;18.05;;;12.25;;
69087;SDS011;56190;43.562;5.036;2023-01-13T10:09:02;20.92;;;13.85;;
69087;SDS011;56190;43.562;5.036;2023-01-13T10:11:32;25.38;;;16.02;;
69087;SDS011;56190;43.562;5.036;2023-01-13T10:14:18;21.33;;;14.75;;
69087;SDS011;56190;43.562;5.036;2023-01-13T10:17:28;23.30;;;14.25;;
69087;SDS011;56190;43.562;5.036;2023-01-13T10:27:35;18.15;;;11.68;;
69087;SDS011;56190;43.562;5.036;2023-01-13T10:35:16;19.05;;;11.75;;
69087;SDS011;56190;43.562;5.036;2023-01-13T10:37:41;21.02;;;13.32;;
69087;SDS011;56190;43.562;5.036;2023-01-13T10:40:19;20.98;;;13.25;;
69087;SDS011;56190;43.562;5.036;2023-01-13T10:42:44;20.45;;;12.32;;
69087;SDS011;56190;43.562;5.036;2023-01-13T10:45:10;21.38;;;11.57;;
69087;SDS011;56190;43.562;5.036;2023-01-13T10:47:41;17.60;;;8.68;;
69087;SDS011;56190;43.562;5.036;2023-01-13T10:52:35;10.45;;;6.20;;
69087;SDS011;56190;43.562;5.036;2023-01-13T10:55:02;8.77;;;5.60;;
69087;SDS011;56190;43.562;5.036;2023-01-13T10:57:27;7.60;;;4.80;;
69087;SDS011;56190;43.562;5.036;2023-01-13T10:59:53;7.90;;;4.45;;
69087;SDS011;56190;43.562;5.036;2023-01-13T11:02:23;5.63;;;3.58;;
69087;SDS011;56190;43.562;5.036;2023-01-13T11:07:18;5.80;;;2.85;;
69087;SDS011;56190;43.562;5.036;2023-01-13T11:09:45;8.15;;;3.40;;
69087;SDS011;56190;43.562;5.036;2023-01-13T11:12:31;6.65;;;3.00;;
69087;SDS011;56190;43.562;5.036;2023-01-13T11:14:56;6.72;;;3.08;;
69087;SDS011;56190;43.562;5.036;2023-01-13T11:19:51;8.38;;;3.53;;
69087;SDS011;56190;43.562;5.036;2023-01-13T11:22:20;6.75;;;3.20;;
69087;SDS011;56190;43.562;5.036;2023-01-13T11:30:16;6.68;;;3.50;;
69087;SDS011;56190;43.562;5.036;2023-01-13T11:32:43;6.05;;;3.60;;
69087;SDS011;56190;43.562;5.036;2023-01-13T11:35:17;6.53;;;3.17;;
69087;SDS011;56190;43.562;5.036;2023-01-13T11:37:44;6.78;;;3.35;;
69087;SDS011;56190;43.562;5.036;2023-01-13T11:42:40;4.82;;;2.65;;
69087;SDS011;56190;43.562;5.036;2023-01-13T11:47:35;6.65;;;3.03;;
69087;SDS011;56190;43.562;5.036;2023-01-13T11:50:01;8.07;;;3.20;;
69087;SDS011;56190;43.562;5.036;2023-01-13T11:52:30;7.30;;;2.80;;
69087;SDS011;56190;43.562;5.036;2023-01-13T12:02:47;4.18;;;2.22;;
69087;SDS011;56190;43.562;5.036;2023-01-13T12:10:27;4.65;;;3.10;;
69087;SDS011;56190;43.562;5.036;2023-01-13T12:12:55;3.85;;;2.78;;
69087;SDS011;56190;43.562;5.036;2023-01-13T12:15:27;3.97;;;2.53;;
69087;SDS011;56190;43.562;5.036;2023-01-13T12:22:53;5.43;;;3.25;;
69087;SDS011;56190;43.562;5.036;2023-01-13T12:25:20;4.43;;;3.20;;
69087;SDS011;56190;43.562;5.036;2023-01-13T12:30:18;6.30;;;4.20;;
69087;SDS011;56190;43.562;5.036;2023-01-13T12:32:44;6.70;;;3.92;;
69087;SDS011;56190;43.562;5.036;2023-01-13T12:45:46;8.93;;;4.60;;
69087;SDS011;56190;43.562;5.036;2023-01-13T12:50:58;7.95;;;4.47;;
69087;SDS011;56190;43.562;5.036;2023-01-13T12:55:52;7.82;;;4.78;;
69087;SDS011;56190;43.562;5.036;2023-01-13T12:58:23;6.50;;;4.43;;
69087;SDS011;56190;43.562;5.036;2023-01-13T13:00:55;7.25;;;4.72;;
69087;SDS011;56190;43.562;5.036;2023-01-13T13:03:29;5.22;;;3.30;;
69087;SDS011;56190;43.562;5.036;2023-01-13T13:06:02;3.25;;;2.63;;
69087;SDS011;56190;43.562;5.036;2023-01-13T13:14:00;3.88;;;2.65;;
69087;SDS011;56190;43.562;5.036;2023-01-13T13:18:51;3.58;;;1.70;;
69087;SDS011;56190;43.562;5.036;2023-01-13T13:21:16;2.20;;;1.42;;
69087;SDS011;56190;43.562;5.036;2023-01-13T13:23:56;1.60;;;1.40;;
69087;SDS011;56190;43.562;5.036;2023-01-13T13:26:27;4.32;;;1.50;;
69087;SDS011;56190;43.562;5.036;2023-01-13T13:31:23;2.67;;;1.45;;
69087;SDS011;56190;43.562;5.036;2023-01-13T13:36:39;1.73;;;1.27;;
69087;SDS011;56190;43.562;5.036;2023-01-13T13:39:28;1.58;;;1.23;;
69087;SDS011;56190;43.562;5.036;2023-01-13T13:42:19;1.40;;;1.00;;
69087;SDS011;56190;43.562;5.036;2023-01-13T13:45:01;1.63;;;1.20;;
69087;SDS011;56190;43.562;5.036;2023-01-13T13:47:45;1.63;;;1.25;;
69087;SDS011;56190;43.562;5.036;2023-01-13T13:50:12;2.75;;;1.67;;
69087;SDS011;56190;43.562;5.036;2023-01-13T13:52:45;2.00;;;1.30;;
69087;SDS011;56190;43.562;5.036;2023-01-13T13:55:19;2.10;;;1.60;;
69087;SDS011;56190;43.562;5.036;2023-01-13T13:57:45;2.60;;;1.50;;
69087;SDS011;56190;43.562;5.036;2023-01-13T14:02:39;1.73;;;1.00;;
69087;SDS011;56190;43.562;5.036;2023-01-13T14:07:48;1.42;;;0.80;;
69087;SDS011;56190;43.562;5.036;2023-01-13T14:10:18;3.58;;;1.00;;
69087;SDS011;56190;43.562;5.036;2023-01-13T14:12:44;1.05;;;0.70;;
69087;SDS011;56190;43.562;5.036;2023-01-13T14:15:29;1.02;;;0.90;;
69087;SDS011;56190;43.562;5.036;2023-01-13T14:17:55;2.00;;;0.70;;
69087;SDS011;56190;43.562;5.036;2023-01-13T14:20:21;1.30;;;0.60;;
69087;SDS011;56190;43.562;5.036;2023-01-13T14:22:50;0.60;;;0.40;;
69087;SDS011;56190;43.562;5.036;2023-01-13T14:25:38;0.88;;;0.50;;
69087;SDS011;56190;43.562;5.036;2023-01-13T14:30:34;0.85;;;0.60;;
69087;SDS011;56190;43.562;5.036;2023-01-13T14:33:00;2.05;;;1.20;;
69087;SDS011;56190;43.562;5.036;2023-01-13T14:35:25;1.30;;;0.80;;
69087;SDS011;56190;43.562;5.036;2023-01-13T14:37:50;1.38;;;0.80;;
69087;SDS011;56190;43.562;5.036;2023-01-13T14:43:03;1.50;;;0.80;;
69087;SDS011;56190;43.562;5.036;2023-01-13T14:45:34;0.90;;;0.70;;
69087;SDS011;56190;43.562;5.036;2023-01-13T14:47:59;1.00;;;0.75;;
69087;SDS011;56190;43.562;5.036;2023-01-13T14:50:25;2.33;;;1.02;;
69087;SDS011;56190;43.562;5.036;2023-01-13T14:52:55;1.00;;;0.60;;
69087;SDS011;56190;43.562;5.036;2023-01-13T14:55:23;1.10;;;0.80;;
69087;SDS011;56190;43.562;5.036;2023-01-13T14:57:48;2.22;;;1.10;;
69087;SDS011;56190;43.562;5.036;2023-01-13T15:07:55;1.95;;;1.33;;
69087;SDS011;56190;43.562;5.036;2023-01-13T15:10:22;1.60;;;1.33;;
69087;SDS011;56190;43.562;5.036;2023-01-13T15:12:49;2.83;;;1.70;;
69087;SDS011;56190;43.562;5.036;2023-01-13T15:17:43;2.70;;;1.63;;
69087;SDS011;56190;43.562;5.036;2023-01-13T15:20:11;3.08;;;1.65;;
69087;SDS011;56190;43.562;5.036;2023-01-13T15:22:37;2.58;;;1.85;;
69087;SDS011;56190;43.562;5.036;2023-01-13T15:25:02;3.97;;;2.10;;
69087;SDS011;56190;43.562;5.036;2023-01-13T15:27:27;3.65;;;2.22;;
69087;SDS011;56190;43.562;5.036;2023-01-13T15:29:53;3.63;;;2.40;;
69087;SDS011;56190;43.562;5.036;2023-01-13T15:32:18;2.47;;;1.80;;
69087;SDS011;56190;43.562;5.036;2023-01-13T15:34:44;6.78;;;1.95;;
69087;SDS011;56190;43.562;5.036;2023-01-13T15:37:10;4.03;;;1.70;;
69087;SDS011;56190;43.562;5.036;2023-01-13T15:39:36;3.22;;;2.00;;
69087;SDS011;56190;43.562;5.036;2023-01-13T15:42:02;3.58;;;1.83;;
69087;SDS011;56190;43.562;5.036;2023-01-13T15:44:46;2.70;;;1.50;;
69087;SDS011;56190;43.562;5.036;2023-01-13T15:47:30;2.53;;;1.45;;
69087;SDS011;56190;43.562;5.036;2023-01-13T15:49:55;1.73;;;1.50;;
69087;SDS011;56190;43.562;5.036;2023-01-13T15:52:21;3.95;;;1.60;;
69087;SDS011;56190;43.562;5.036;2023-01-13T15:54:47;2.45;;;1.60;;
69087;SDS011;56190;43.562;5.036;2023-01-13T15:57:20;2.67;;;1.80;;
69087;SDS011;56190;43.562;5.036;2023-01-13T15:59:46;2.90;;;2.17;;
69087;SDS011;56190;43.562;5.036;2023-01-13T16:02:12;4.00;;;2.03;;
69087;SDS011;56190;43.562;5.036;2023-01-13T16:04:42;5.10;;;1.85;;
69087;SDS011;56190;43.562;5.036;2023-01-13T16:07:14;5.80;;;2.33;;
69087;SDS011;56190;43.562;5.036;2023-01-13T16:09:40;3.80;;;2.60;;
69087;SDS011;56190;43.562;5.036;2023-01-13T16:12:05;4.40;;;3.55;;
69087;SDS011;56190;43.562;5.036;2023-01-13T16:14:31;5.68;;;3.90;;
69087;SDS011;56190;43.562;5.036;2023-01-13T16:16:56;7.25;;;3.92;;
69087;SDS011;56190;43.562;5.036;2023-01-13T16:19:21;6.10;;;3.92;;
69087;SDS011;56190;43.562;5.036;2023-01-13T16:21:46;5.50;;;3.47;;
69087;SDS011;56190;43.562;5.036;2023-01-13T16:24:11;5.90;;;3.80;;
69087;SDS011;56190;43.562;5.036;2023-01-13T16:26:37;6.20;;;3.58;;
69087;SDS011;56190;43.562;5.036;2023-01-13T16:29:03;6.95;;;4.30;;
69087;SDS011;56190;43.562;5.036;2023-01-13T16:31:29;6.68;;;4.03;;
69087;SDS011;56190;43.562;5.036;2023-01-13T16:33:56;7.95;;;4.80;;
69087;SDS011;56190;43.562;5.036;2023-01-13T16:36:21;9.23;;;5.78;;
69087;SDS011;56190;43.562;5.036;2023-01-13T16:38:47;10.55;;;6.68;;
69087;SDS011;56190;43.562;5.036;2023-01-13T16:41:13;11.68;;;7.30;;
69087;SDS011;56190;43.562;5.036;2023-01-13T16:43:38;10.55;;;6.65;;
69087;SDS011;56190;43.562;5.036;2023-01-13T16:46:23;9.88;;;5.13;;
69087;SDS011;56190;43.562;5.036;2023-01-13T16:48:49;7.90;;;4.00;;
69087;SDS011;56190;43.562;5.036;2023-01-13T16:51:16;5.40;;;3.00;;
69087;SDS011;56190;43.562;5.036;2023-01-13T16:53:41;2.97;;;2.45;;
69087;SDS011;56190;43.562;5.036;2023-01-13T16:56:17;2.72;;;1.70;;
69087;SDS011;56190;43.562;5.036;2023-01-13T16:58:43;3.33;;;1.80;;
69087;SDS011;56190;43.562;5.036;2023-01-13T17:01:13;2.70;;;1.95;;
69087;SDS011;56190;43.562;5.036;2023-01-13T17:03:42;3.85;;;2.08;;